sensor_id;sensor_type;location;lat;lon;timestamp;P1;durP1;ratioP1;P2;durP2;ratioP2
52934;SDS011;38802;50.198;19.796;2022-10-31T00:01:33;8.10;;;6.00;;
52934;SDS011;38802;50.198;19.796;2022-10-31T00:04:04;6.30;;;5.40;;
52934;SDS011;38802;50.198;19.796;2022-10-31T00:06:33;10.70;;;5.70;;
52934;SDS011;38802;50.198;19.796;2022-10-31T00:09:02;11.40;;;5.50;;
52934;SDS011;38802;50.198;19.796;2022-10-31T00:11:31;5.70;;;5.10;;
52934;SDS011;38802;50.198;19.796;2022-10-31T00:14:00;11.70;;;5.60;;
52934;SDS011;38802;50.198;19.796;2022-10-31T00:16:29;8.40;;;5.60;;
52934;SDS011;38802;50.198;19.796;2022-10-31T00:18:58;6.90;;;4.80;;
52934;SDS011;38802;50.198;19.796;2022-10-31T00:21:29;11.80;;;5.90;;
52934;SDS011;38802;50.198;19.796;2022-10-31T00:23:58;11.70;;;5.70;;
52934;SDS011;38802;50.198;19.796;2022-10-31T00:26:27;11.70;;;6.00;;
52934;SDS011;38802;50.198;19.796;2022-10-31T00:28:58;9.80;;;5.40;;
52934;SDS011;38802;50.198;19.796;2022-10-31T00:31:28;6.60;;;5.90;;
52934;SDS011;38802;50.198;19.796;2022-10-31T00:33:57;11.50;;;6.30;;
52934;SDS011;38802;50.198;19.796;2022-10-31T00:36:26;13.10;;;6.80;;
52934;SDS011;38802;50.198;19.796;2022-10-31T00:38:54;15.80;;;5.30;;
52934;SDS011;38802;50.198;19.796;2022-10-31T00:41:24;13.10;;;6.60;;
52934;SDS011;38802;50.198;19.796;2022-10-31T00:43:52;8.70;;;5.40;;
52934;SDS011;38802;50.198;19.796;2022-10-31T00:46:20;18.20;;;6.40;;
52934;SDS011;38802;50.198;19.796;2022-10-31T00:48:50;12.90;;;5.90;;
52934;SDS011;38802;50.198;19.796;2022-10-31T00:51:18;11.80;;;6.20;;
52934;SDS011;38802;50.198;19.796;2022-10-31T00:53:46;18.50;;;7.30;;
52934;SDS011;38802;50.198;19.796;2022-10-31T00:56:14;7.80;;;6.10;;
52934;SDS011;38802;50.198;19.796;2022-10-31T00:58:43;9.40;;;6.20;;
52934;SDS011;38802;50.198;19.796;2022-10-31T01:01:11;13.10;;;6.80;;
52934;SDS011;38802;50.198;19.796;2022-10-31T01:03:39;23.90;;;7.50;;
52934;SDS011;38802;50.198;19.796;2022-10-31T01:06:12;11.10;;;6.00;;
52934;SDS011;38802;50.198;19.796;2022-10-31T01:08:40;7.90;;;6.80;;
52934;SDS011;38802;50.198;19.796;2022-10-31T01:11:14;13.00;;;6.70;;
52934;SDS011;38802;50.198;19.796;2022-10-31T01:13:47;15.70;;;6.90;;
52934;SDS011;38802;50.198;19.796;2022-10-31T01:16:18;11.50;;;6.40;;
52934;SDS011;38802;50.198;19.796;2022-10-31T01:18:50;11.40;;;7.10;;
52934;SDS011;38802;50.198;19.796;2022-10-31T01:21:20;13.70;;;6.30;;
52934;SDS011;38802;50.198;19.796;2022-10-31T01:23:52;13.80;;;6.90;;
52934;SDS011;38802;50.198;19.796;2022-10-31T01:26:22;10.60;;;7.10;;
52934;SDS011;38802;50.198;19.796;2022-10-31T01:28:54;11.70;;;6.30;;
52934;SDS011;38802;50.198;19.796;2022-10-31T01:31:26;10.90;;;6.10;;
52934;SDS011;38802;50.198;19.796;2022-10-31T01:33:58;14.30;;;6.70;;
52934;SDS011;38802;50.198;19.796;2022-10-31T01:38:55;8.60;;;7.00;;
52934;SDS011;38802;50.198;19.796;2022-10-31T01:41:26;15.50;;;7.50;;
52934;SDS011;38802;50.198;19.796;2022-10-31T01:44:01;14.80;;;8.00;;
52934;SDS011;38802;50.198;19.796;2022-10-31T01:47:00;16.00;;;8.20;;
52934;SDS011;38802;50.198;19.796;2022-10-31T01:49:37;17.20;;;7.60;;
52934;SDS011;38802;50.198;19.796;2022-10-31T01:55:03;13.10;;;7.80;;
52934;SDS011;38802;50.198;19.796;2022-10-31T01:57:37;13.20;;;7.90;;
52934;SDS011;38802;50.198;19.796;2022-10-31T02:00:10;19.40;;;8.90;;
52934;SDS011;38802;50.198;19.796;2022-10-31T02:02:42;21.50;;;8.10;;
52934;SDS011;38802;50.198;19.796;2022-10-31T02:05:16;17.20;;;8.40;;
52934;SDS011;38802;50.198;19.796;2022-10-31T02:10:30;13.60;;;8.30;;
52934;SDS011;38802;50.198;19.796;2022-10-31T02:13:01;17.70;;;8.60;;
52934;SDS011;38802;50.198;19.796;2022-10-31T02:15:36;15.30;;;7.90;;
52934;SDS011;38802;50.198;19.796;2022-10-31T02:18:06;10.90;;;7.40;;
52934;SDS011;38802;50.198;19.796;2022-10-31T02:31:12;7.60;;;6.80;;
52934;SDS011;38802;50.198;19.796;2022-10-31T02:33:48;19.10;;;6.50;;
52934;SDS011;38802;50.198;19.796;2022-10-31T02:36:22;23.20;;;9.50;;
52934;SDS011;38802;50.198;19.796;2022-10-31T02:41:51;10.70;;;6.40;;
52934;SDS011;38802;50.198;19.796;2022-10-31T02:47:22;13.80;;;7.10;;
52934;SDS011;38802;50.198;19.796;2022-10-31T02:49:59;11.70;;;7.70;;
52934;SDS011;38802;50.198;19.796;2022-10-31T02:52:32;11.10;;;7.40;;
52934;SDS011;38802;50.198;19.796;2022-10-31T02:57:51;10.90;;;7.60;;
52934;SDS011;38802;50.198;19.796;2022-10-31T03:00:26;17.90;;;8.30;;
52934;SDS011;38802;50.198;19.796;2022-10-31T03:08:23;13.30;;;7.80;;
52934;SDS011;38802;50.198;19.796;2022-10-31T03:11:01;13.00;;;7.30;;
52934;SDS011;38802;50.198;19.796;2022-10-31T03:21:36;15.40;;;7.60;;
52934;SDS011;38802;50.198;19.796;2022-10-31T03:24:29;10.80;;;7.90;;
52934;SDS011;38802;50.198;19.796;2022-10-31T03:27:02;13.40;;;7.60;;
52934;SDS011;38802;50.198;19.796;2022-10-31T03:29:34;13.20;;;7.40;;
52934;SDS011;38802;50.198;19.796;2022-10-31T03:32:16;12.30;;;7.90;;
52934;SDS011;38802;50.198;19.796;2022-10-31T03:34:48;12.70;;;7.20;;
52934;SDS011;38802;50.198;19.796;2022-10-31T03:37:19;9.10;;;7.60;;
52934;SDS011;38802;50.198;19.796;2022-10-31T03:39:50;16.10;;;7.80;;
52934;SDS011;38802;50.198;19.796;2022-10-31T03:42:22;10.30;;;6.70;;
52934;SDS011;38802;50.198;19.796;2022-10-31T03:44:53;17.00;;;7.50;;
52934;SDS011;38802;50.198;19.796;2022-10-31T03:47:27;12.10;;;7.70;;
52934;SDS011;38802;50.198;19.796;2022-10-31T03:49:56;12.60;;;7.90;;
52934;SDS011;38802;50.198;19.796;2022-10-31T03:52:35;12.80;;;7.20;;
52934;SDS011;38802;50.198;19.796;2022-10-31T03:55:13;13.90;;;7.60;;
52934;SDS011;38802;50.198;19.796;2022-10-31T04:00:43;19.80;;;8.50;;
52934;SDS011;38802;50.198;19.796;2022-10-31T04:03:26;15.00;;;8.70;;
52934;SDS011;38802;50.198;19.796;2022-10-31T04:06:00;12.90;;;8.90;;
52934;SDS011;38802;50.198;19.796;2022-10-31T04:08:36;15.30;;;8.50;;
52934;SDS011;38802;50.198;19.796;2022-10-31T04:11:31;8.50;;;7.60;;
52934;SDS011;38802;50.198;19.796;2022-10-31T04:14:26;12.50;;;7.00;;
52934;SDS011;38802;50.198;19.796;2022-10-31T04:16:57;17.20;;;8.10;;
52934;SDS011;38802;50.198;19.796;2022-10-31T04:19:33;20.70;;;8.30;;
52934;SDS011;38802;50.198;19.796;2022-10-31T04:22:02;15.20;;;9.10;;
52934;SDS011;38802;50.198;19.796;2022-10-31T04:24:31;17.10;;;9.50;;
52934;SDS011;38802;50.198;19.796;2022-10-31T04:26:59;16.40;;;8.40;;
52934;SDS011;38802;50.198;19.796;2022-10-31T04:29:27;17.80;;;9.50;;
52934;SDS011;38802;50.198;19.796;2022-10-31T04:31:56;12.20;;;8.40;;
52934;SDS011;38802;50.198;19.796;2022-10-31T04:34:24;17.50;;;10.20;;
52934;SDS011;38802;50.198;19.796;2022-10-31T04:36:53;15.80;;;9.40;;
52934;SDS011;38802;50.198;19.796;2022-10-31T04:39:21;18.40;;;9.40;;
52934;SDS011;38802;50.198;19.796;2022-10-31T04:42:19;17.10;;;10.70;;
52934;SDS011;38802;50.198;19.796;2022-10-31T04:44:48;16.20;;;9.70;;
52934;SDS011;38802;50.198;19.796;2022-10-31T04:47:16;16.50;;;9.00;;
52934;SDS011;38802;50.198;19.796;2022-10-31T04:49:44;13.20;;;9.50;;
52934;SDS011;38802;50.198;19.796;2022-10-31T04:52:12;12.70;;;8.70;;
52934;SDS011;38802;50.198;19.796;2022-10-31T04:54:41;13.50;;;9.30;;
52934;SDS011;38802;50.198;19.796;2022-10-31T04:57:28;19.70;;;8.90;;
52934;SDS011;38802;50.198;19.796;2022-10-31T04:59:59;15.90;;;9.60;;
52934;SDS011;38802;50.198;19.796;2022-10-31T05:02:27;14.10;;;8.40;;
52934;SDS011;38802;50.198;19.796;2022-10-31T05:04:56;16.90;;;8.90;;
52934;SDS011;38802;50.198;19.796;2022-10-31T05:07:25;12.60;;;9.40;;
52934;SDS011;38802;50.198;19.796;2022-10-31T05:09:53;18.60;;;8.70;;
52934;SDS011;38802;50.198;19.796;2022-10-31T05:12:21;16.70;;;8.90;;
52934;SDS011;38802;50.198;19.796;2022-10-31T05:15:12;16.30;;;8.80;;
52934;SDS011;38802;50.198;19.796;2022-10-31T05:17:58;20.30;;;9.40;;
52934;SDS011;38802;50.198;19.796;2022-10-31T05:20:46;22.10;;;9.40;;
52934;SDS011;38802;50.198;19.796;2022-10-31T05:23:47;11.10;;;8.80;;
52934;SDS011;38802;50.198;19.796;2022-10-31T05:26:15;11.10;;;6.60;;
52934;SDS011;38802;50.198;19.796;2022-10-31T05:28:45;15.20;;;9.70;;
52934;SDS011;38802;50.198;19.796;2022-10-31T05:31:13;17.30;;;10.00;;
52934;SDS011;38802;50.198;19.796;2022-10-31T05:33:41;22.50;;;10.30;;
52934;SDS011;38802;50.198;19.796;2022-10-31T05:36:28;17.90;;;9.50;;
52934;SDS011;38802;50.198;19.796;2022-10-31T05:39:16;14.50;;;9.90;;
52934;SDS011;38802;50.198;19.796;2022-10-31T05:41:48;23.20;;;11.40;;
52934;SDS011;38802;50.198;19.796;2022-10-31T05:44:21;17.60;;;10.40;;
52934;SDS011;38802;50.198;19.796;2022-10-31T05:47:14;14.10;;;10.30;;
52934;SDS011;38802;50.198;19.796;2022-10-31T05:49:57;16.90;;;9.60;;
52934;SDS011;38802;50.198;19.796;2022-10-31T05:52:45;12.30;;;9.10;;
52934;SDS011;38802;50.198;19.796;2022-10-31T05:55:21;19.20;;;9.80;;
52934;SDS011;38802;50.198;19.796;2022-10-31T05:58:04;19.20;;;9.70;;
52934;SDS011;38802;50.198;19.796;2022-10-31T06:00:33;14.30;;;10.40;;
52934;SDS011;38802;50.198;19.796;2022-10-31T06:03:06;15.10;;;9.70;;
52934;SDS011;38802;50.198;19.796;2022-10-31T06:05:48;20.70;;;9.50;;
52934;SDS011;38802;50.198;19.796;2022-10-31T06:08:23;11.90;;;9.80;;
52934;SDS011;38802;50.198;19.796;2022-10-31T06:10:51;18.50;;;9.50;;
52934;SDS011;38802;50.198;19.796;2022-10-31T06:13:30;14.50;;;10.40;;
52934;SDS011;38802;50.198;19.796;2022-10-31T06:16:03;25.60;;;10.30;;
52934;SDS011;38802;50.198;19.796;2022-10-31T06:18:35;19.30;;;9.90;;
52934;SDS011;38802;50.198;19.796;2022-10-31T06:21:03;17.70;;;9.50;;
52934;SDS011;38802;50.198;19.796;2022-10-31T06:23:31;13.90;;;9.50;;
52934;SDS011;38802;50.198;19.796;2022-10-31T06:26:19;15.20;;;9.50;;
52934;SDS011;38802;50.198;19.796;2022-10-31T06:28:48;18.00;;;9.70;;
52934;SDS011;38802;50.198;19.796;2022-10-31T06:31:38;23.80;;;9.40;;
52934;SDS011;38802;50.198;19.796;2022-10-31T06:34:07;16.50;;;9.70;;
52934;SDS011;38802;50.198;19.796;2022-10-31T06:36:35;20.20;;;9.70;;
52934;SDS011;38802;50.198;19.796;2022-10-31T06:39:04;18.90;;;9.30;;
52934;SDS011;38802;50.198;19.796;2022-10-31T06:41:32;13.20;;;8.10;;
52934;SDS011;38802;50.198;19.796;2022-10-31T06:44:00;18.40;;;8.60;;
52934;SDS011;38802;50.198;19.796;2022-10-31T06:47:03;15.70;;;9.30;;
52934;SDS011;38802;50.198;19.796;2022-10-31T06:49:35;23.80;;;9.70;;
52934;SDS011;38802;50.198;19.796;2022-10-31T06:52:09;22.10;;;8.60;;
52934;SDS011;38802;50.198;19.796;2022-10-31T06:54:37;13.50;;;9.80;;
52934;SDS011;38802;50.198;19.796;2022-10-31T06:57:05;15.20;;;9.60;;
52934;SDS011;38802;50.198;19.796;2022-10-31T06:59:34;18.80;;;9.90;;
52934;SDS011;38802;50.198;19.796;2022-10-31T07:02:12;12.00;;;8.60;;
52934;SDS011;38802;50.198;19.796;2022-10-31T07:04:42;10.80;;;9.40;;
52934;SDS011;38802;50.198;19.796;2022-10-31T07:07:13;18.30;;;8.60;;
52934;SDS011;38802;50.198;19.796;2022-10-31T07:09:41;15.50;;;8.70;;
52934;SDS011;38802;50.198;19.796;2022-10-31T07:12:10;19.50;;;9.70;;
52934;SDS011;38802;50.198;19.796;2022-10-31T07:14:43;19.30;;;8.90;;
52934;SDS011;38802;50.198;19.796;2022-10-31T07:17:11;23.60;;;9.80;;
52934;SDS011;38802;50.198;19.796;2022-10-31T07:19:41;20.30;;;9.70;;
52934;SDS011;38802;50.198;19.796;2022-10-31T07:22:09;17.30;;;8.30;;
52934;SDS011;38802;50.198;19.796;2022-10-31T07:24:38;14.20;;;8.10;;
52934;SDS011;38802;50.198;19.796;2022-10-31T07:27:15;14.30;;;8.80;;
52934;SDS011;38802;50.198;19.796;2022-10-31T07:29:44;17.50;;;8.20;;
52934;SDS011;38802;50.198;19.796;2022-10-31T07:32:13;11.60;;;8.10;;
52934;SDS011;38802;50.198;19.796;2022-10-31T07:34:46;15.80;;;8.70;;
52934;SDS011;38802;50.198;19.796;2022-10-31T07:37:28;18.40;;;7.80;;
52934;SDS011;38802;50.198;19.796;2022-10-31T07:39:57;11.80;;;6.60;;
52934;SDS011;38802;50.198;19.796;2022-10-31T07:42:25;11.80;;;7.10;;
52934;SDS011;38802;50.198;19.796;2022-10-31T07:44:53;15.90;;;6.90;;
52934;SDS011;38802;50.198;19.796;2022-10-31T07:47:44;14.20;;;8.00;;
52934;SDS011;38802;50.198;19.796;2022-10-31T07:50:32;17.10;;;7.60;;
52934;SDS011;38802;50.198;19.796;2022-10-31T07:53:23;12.40;;;6.30;;
52934;SDS011;38802;50.198;19.796;2022-10-31T07:56:01;11.60;;;6.80;;
52934;SDS011;38802;50.198;19.796;2022-10-31T07:58:29;11.50;;;6.10;;
52934;SDS011;38802;50.198;19.796;2022-10-31T08:00:59;16.60;;;5.80;;
52934;SDS011;38802;50.198;19.796;2022-10-31T08:03:33;19.50;;;6.30;;
52934;SDS011;38802;50.198;19.796;2022-10-31T08:06:20;15.20;;;5.50;;
52934;SDS011;38802;50.198;19.796;2022-10-31T08:09:16;14.60;;;5.10;;
52934;SDS011;38802;50.198;19.796;2022-10-31T08:11:45;8.00;;;5.30;;
52934;SDS011;38802;50.198;19.796;2022-10-31T08:14:13;9.70;;;5.80;;
52934;SDS011;38802;50.198;19.796;2022-10-31T08:16:42;21.00;;;8.40;;
52934;SDS011;38802;50.198;19.796;2022-10-31T08:19:10;14.50;;;6.40;;
52934;SDS011;38802;50.198;19.796;2022-10-31T08:21:39;18.40;;;8.20;;
52934;SDS011;38802;50.198;19.796;2022-10-31T08:24:08;18.30;;;8.20;;
52934;SDS011;38802;50.198;19.796;2022-10-31T08:26:37;24.30;;;8.80;;
52934;SDS011;38802;50.198;19.796;2022-10-31T08:29:07;30.60;;;9.90;;
52934;SDS011;38802;50.198;19.796;2022-10-31T08:31:36;20.80;;;8.90;;
52934;SDS011;38802;50.198;19.796;2022-10-31T08:34:27;18.00;;;9.30;;
52934;SDS011;38802;50.198;19.796;2022-10-31T08:37:14;28.60;;;9.30;;
52934;SDS011;38802;50.198;19.796;2022-10-31T08:39:49;19.80;;;9.50;;
52934;SDS011;38802;50.198;19.796;2022-10-31T08:42:17;12.80;;;8.00;;
52934;SDS011;38802;50.198;19.796;2022-10-31T08:44:46;24.20;;;9.20;;
52934;SDS011;38802;50.198;19.796;2022-10-31T08:47:14;15.40;;;8.20;;
52934;SDS011;38802;50.198;19.796;2022-10-31T08:49:42;13.30;;;6.90;;
52934;SDS011;38802;50.198;19.796;2022-10-31T08:52:11;20.60;;;7.50;;
52934;SDS011;38802;50.198;19.796;2022-10-31T08:54:42;13.30;;;7.70;;
52934;SDS011;38802;50.198;19.796;2022-10-31T08:59:57;17.90;;;8.60;;
52934;SDS011;38802;50.198;19.796;2022-10-31T09:02:32;11.80;;;8.40;;
52934;SDS011;38802;50.198;19.796;2022-10-31T09:05:00;14.20;;;7.80;;
52934;SDS011;38802;50.198;19.796;2022-10-31T09:07:28;23.10;;;9.10;;
52934;SDS011;38802;50.198;19.796;2022-10-31T09:09:58;17.00;;;7.60;;
52934;SDS011;38802;50.198;19.796;2022-10-31T09:12:26;11.40;;;7.90;;
52934;SDS011;38802;50.198;19.796;2022-10-31T09:15:12;25.40;;;10.90;;
52934;SDS011;38802;50.198;19.796;2022-10-31T09:17:48;32.40;;;17.00;;
52934;SDS011;38802;50.198;19.796;2022-10-31T09:20:33;32.10;;;16.40;;
52934;SDS011;38802;50.198;19.796;2022-10-31T09:23:04;24.60;;;12.40;;
52934;SDS011;38802;50.198;19.796;2022-10-31T09:25:35;31.20;;;15.80;;
52934;SDS011;38802;50.198;19.796;2022-10-31T09:28:23;20.00;;;10.80;;
52934;SDS011;38802;50.198;19.796;2022-10-31T09:30:52;26.50;;;9.40;;
52934;SDS011;38802;50.198;19.796;2022-10-31T09:33:44;22.20;;;8.20;;
52934;SDS011;38802;50.198;19.796;2022-10-31T09:36:31;16.10;;;7.70;;
52934;SDS011;38802;50.198;19.796;2022-10-31T09:38:59;24.70;;;8.80;;
52934;SDS011;38802;50.198;19.796;2022-10-31T09:52:24;18.40;;;6.90;;
52934;SDS011;38802;50.198;19.796;2022-10-31T09:57:55;11.90;;;6.20;;
52934;SDS011;38802;50.198;19.796;2022-10-31T10:00:23;15.30;;;6.60;;
52934;SDS011;38802;50.198;19.796;2022-10-31T10:05:49;16.70;;;7.60;;
52934;SDS011;38802;50.198;19.796;2022-10-31T10:08:34;13.60;;;6.90;;
52934;SDS011;38802;50.198;19.796;2022-10-31T10:20:41;14.50;;;8.10;;
52934;SDS011;38802;50.198;19.796;2022-10-31T10:23:40;16.80;;;7.10;;
52934;SDS011;38802;50.198;19.796;2022-10-31T10:26:30;13.10;;;5.50;;
52934;SDS011;38802;50.198;19.796;2022-10-31T10:31:50;17.40;;;7.00;;
52934;SDS011;38802;50.198;19.796;2022-10-31T10:34:22;14.80;;;6.10;;
52934;SDS011;38802;50.198;19.796;2022-10-31T10:37:01;17.30;;;6.30;;
52934;SDS011;38802;50.198;19.796;2022-10-31T10:39:36;12.20;;;5.70;;
52934;SDS011;38802;50.198;19.796;2022-10-31T10:42:12;13.50;;;6.50;;
52934;SDS011;38802;50.198;19.796;2022-10-31T10:45:13;8.60;;;5.90;;
52934;SDS011;38802;50.198;19.796;2022-10-31T10:48:08;17.80;;;6.40;;
52934;SDS011;38802;50.198;19.796;2022-10-31T10:50:47;16.00;;;6.10;;
52934;SDS011;38802;50.198;19.796;2022-10-31T10:59:11;18.40;;;6.20;;
52934;SDS011;38802;50.198;19.796;2022-10-31T11:01:43;18.10;;;6.30;;
52934;SDS011;38802;50.198;19.796;2022-10-31T11:04:19;13.10;;;5.90;;
52934;SDS011;38802;50.198;19.796;2022-10-31T11:07:04;13.30;;;5.50;;
52934;SDS011;38802;50.198;19.796;2022-10-31T11:09:34;13.50;;;6.60;;
52934;SDS011;38802;50.198;19.796;2022-10-31T11:12:38;18.20;;;6.10;;
52934;SDS011;38802;50.198;19.796;2022-10-31T11:15:00;13.20;;;5.90;;
52934;SDS011;38802;50.198;19.796;2022-10-31T11:17:36;14.10;;;6.70;;
52934;SDS011;38802;50.198;19.796;2022-10-31T11:22:46;25.20;;;8.70;;
52934;SDS011;38802;50.198;19.796;2022-10-31T11:27:47;17.90;;;7.90;;
52934;SDS011;38802;50.198;19.796;2022-10-31T11:30:35;19.80;;;6.70;;
52934;SDS011;38802;50.198;19.796;2022-10-31T11:33:44;17.30;;;6.40;;
52934;SDS011;38802;50.198;19.796;2022-10-31T11:36:17;12.50;;;5.90;;
52934;SDS011;38802;50.198;19.796;2022-10-31T11:38:50;18.80;;;9.80;;
52934;SDS011;38802;50.198;19.796;2022-10-31T11:43:55;17.50;;;9.30;;
52934;SDS011;38802;50.198;19.796;2022-10-31T11:46:32;24.60;;;7.80;;
52934;SDS011;38802;50.198;19.796;2022-10-31T11:49:15;22.50;;;7.80;;
52934;SDS011;38802;50.198;19.796;2022-10-31T11:51:59;15.90;;;7.40;;
52934;SDS011;38802;50.198;19.796;2022-10-31T11:57:29;20.90;;;7.50;;
52934;SDS011;38802;50.198;19.796;2022-10-31T12:00:02;16.20;;;7.50;;
52934;SDS011;38802;50.198;19.796;2022-10-31T12:02:45;12.90;;;6.40;;
52934;SDS011;38802;50.198;19.796;2022-10-31T12:05:21;17.60;;;6.10;;
52934;SDS011;38802;50.198;19.796;2022-10-31T12:07:55;15.00;;;6.00;;
52934;SDS011;38802;50.198;19.796;2022-10-31T12:10:33;17.90;;;7.10;;
52934;SDS011;38802;50.198;19.796;2022-10-31T12:16:04;13.00;;;6.00;;
52934;SDS011;38802;50.198;19.796;2022-10-31T12:21:34;17.60;;;6.50;;
52934;SDS011;38802;50.198;19.796;2022-10-31T12:24:11;16.10;;;8.00;;
52934;SDS011;38802;50.198;19.796;2022-10-31T12:35:52;21.60;;;6.90;;
52934;SDS011;38802;50.198;19.796;2022-10-31T12:41:36;14.50;;;7.40;;
52934;SDS011;38802;50.198;19.796;2022-10-31T12:57:57;13.30;;;5.50;;
